Time;durP1;ratioP1;P1;durP2;ratioP2;P2;SDS_P1;SDS_P2;PMS_P1;PMS_P2;Temp;Humidity;BMP_temperature;BMP_pressure;BME280_temperature;BME280_humidity;BME280_pressure;Samples;Min_cycle;Max_cycle;Signal;HPM_P1;HPM_P2
2023/06/12 00:00:53;;;;;;;9.95;5.00;;;23.30;73.40;;;;;;5071347;28;20053;-59
2023/06/12 00:03:21;;;;;;;8.45;4.57;;;23.20;73.40;;;;;;5071265;28;20044;-60
2023/06/12 00:05:47;;;;;;;8.32;4.97;;;23.20;73.90;;;;;;5071635;28;20127;-58
2023/06/12 00:08:17;;;;;;;7.38;4.45;;;23.10;73.90;;;;;;5071796;28;20040;-59
2023/06/12 00:10:44;;;;;;;6.95;5.07;;;23.10;74.30;;;;;;5052656;28;20115;-61
2023/06/12 00:13:11;;;;;;;9.07;5.10;;;23.00;74.20;;;;;;5071569;28;20042;-60
2023/06/12 00:15:37;;;;;;;8.95;4.80;;;23.00;74.50;;;;;;5070895;28;20071;-59
2023/06/12 00:18:03;;;;;;;7.63;4.78;;;22.90;74.60;;;;;;5071330;28;20067;-60
2023/06/12 00:20:29;;;;;;;10.60;5.10;;;22.80;74.90;;;;;;5051155;28;20044;-60
2023/06/12 00:22:56;;;;;;;8.18;5.15;;;22.70;75.00;;;;;;5066962;28;20040;-60
2023/06/12 00:25:21;;;;;;;10.52;5.07;;;22.70;75.20;;;;;;5070401;28;20105;-61
2023/06/12 00:27:47;;;;;;;9.07;5.15;;;22.60;75.40;;;;;;5069374;28;20029;-60
2023/06/12 00:30:14;;;;;;;8.20;4.88;;;22.60;75.60;;;;;;5069577;28;20055;-61
2023/06/12 00:32:39;;;;;;;7.72;4.63;;;22.60;75.70;;;;;;5068663;28;20040;-60
2023/06/12 00:35:05;;;;;;;8.85;4.45;;;22.50;75.80;;;;;;5069659;28;20107;-61
2023/06/12 00:37:32;;;;;;;7.60;4.90;;;22.40;75.80;;;;;;5069303;28;20043;-60
2023/06/12 00:39:57;;;;;;;8.85;4.85;;;22.40;76.00;;;;;;5069261;28;20048;-60
2023/06/12 00:42:29;;;;;;;6.60;4.65;;;22.30;76.20;;;;;;5068632;28;20032;-60
2023/06/12 00:44:55;;;;;;;8.63;4.63;;;22.20;76.30;;;;;;5068102;28;20156;-61
2023/06/12 00:47:22;;;;;;;9.57;5.13;;;22.20;76.40;;;;;;5069061;28;20028;-60
2023/06/12 00:49:48;;;;;;;6.53;4.50;;;22.20;76.70;;;;;;5050831;28;20048;-61
2023/06/12 00:52:15;;;;;;;8.70;4.80;;;22.10;76.70;;;;;;5069867;28;20044;-59
2023/06/12 00:54:42;;;;;;;9.68;4.47;;;22.10;76.90;;;;;;5069681;28;20072;-60
2023/06/12 00:57:08;;;;;;;7.43;5.00;;;22.00;77.10;;;;;;5069266;28;20123;-59
2023/06/12 00:59:35;;;;;;;10.13;4.63;;;21.90;77.20;;;;;;5068179;28;20123;-60
2023/06/12 01:02:03;;;;;;;8.50;5.03;;;21.90;77.40;;;;;;5068966;28;20044;-60
2023/06/12 01:04:29;;;;;;;7.13;4.40;;;21.80;77.90;;;;;;5068814;28;20040;-59
2023/06/12 01:07:14;;;;;;;7.97;4.50;;;21.80;77.60;;;;;;5050912;28;20048;-59
2023/06/12 01:09:48;;;;;;;7.68;4.30;;;21.70;77.60;;;;;;5069313;28;20127;-60
2023/06/12 01:12:15;;;;;;;;;;;21.60;77.90;;;;;;5068872;28;20344;-60
2023/06/12 01:14:47;;;;;;;6.68;4.78;;;21.50;78.30;;;;;;5068965;28;19932;-59
2023/06/12 01:17:12;;;;;;;11.23;4.45;;;21.50;78.10;;;;;;5068509;28;20064;-59
2023/06/12 01:19:41;;;;;;;8.60;4.50;;;21.40;78.20;;;;;;5068974;28;20072;-59
2023/06/12 01:22:11;;;;;;;7.43;4.43;;;21.40;78.50;;;;;;5068932;28;20041;-60
2023/06/12 01:25:08;;;;;;;7.90;4.10;;;21.30;78.50;;;;;;5068960;28;20059;-60
2023/06/12 01:27:42;;;;;;;8.57;4.28;;;21.30;78.90;;;;;;5068239;28;20037;-58
2023/06/12 01:30:42;;;;;;;6.75;4.40;;;21.20;78.90;;;;;;5069089;28;20068;-58
2023/06/12 01:33:12;;;;;;;7.82;3.80;;;21.10;79.30;;;;;;5050544;28;20044;-59
2023/06/12 01:35:43;;;;;;;6.22;3.90;;;21.10;79.20;;;;;;5068463;28;20037;-60
2023/06/12 01:38:18;;;;;;;6.13;4.00;;;21.00;79.30;;;;;;5068850;28;20041;-61
2023/06/12 01:40:46;;;;;;;9.75;3.83;;;21.10;79.60;;;;;;5068183;28;20032;-58
2023/06/12 01:43:12;;;;;;;8.25;3.55;;;21.00;79.70;;;;;;5065346;28;20102;-60
2023/06/12 01:45:38;;;;;;;9.20;3.83;;;20.90;79.70;;;;;;5068838;28;20040;-61
2023/06/12 01:48:05;;;;;;;8.85;4.00;;;20.90;79.90;;;;;;5069898;28;20126;-60
2023/06/12 01:50:31;;;;;;;8.63;3.80;;;20.80;80.10;;;;;;5072271;28;20037;-59
2023/06/12 01:52:57;;;;;;;7.60;3.58;;;20.80;80.30;;;;;;5072270;28;20028;-59
2023/06/12 01:55:22;;;;;;;5.93;3.80;;;20.80;80.50;;;;;;5072296;28;20119;-58
2023/06/12 01:57:48;;;;;;;9.43;3.50;;;20.70;80.60;;;;;;5070357;28;20037;-59
2023/06/12 02:00:15;;;;;;;6.13;3.30;;;20.70;80.80;;;;;;5053967;28;20117;-59
2023/06/12 02:02:42;;;;;;;9.25;3.20;;;20.70;80.90;;;;;;5071453;28;20032;-60
2023/06/12 02:05:08;;;;;;;8.55;3.55;;;20.60;81.10;;;;;;5072165;28;20051;-59
2023/06/12 02:07:34;;;;;;;8.65;3.80;;;20.60;81.30;;;;;;5072063;28;20095;-60
2023/06/12 02:09:59;;;;;;;8.63;3.25;;;20.50;81.40;;;;;;5072404;28;20040;-59
2023/06/12 02:12:25;;;;;;;8.68;3.60;;;20.50;81.50;;;;;;5072744;28;20102;-60
2023/06/12 02:14:51;;;;;;;8.63;3.45;;;20.50;81.60;;;;;;5070673;28;20033;-60
2023/06/12 02:17:18;;;;;;;6.93;3.40;;;20.40;81.80;;;;;;5071994;28;20032;-60
2023/06/12 02:19:46;;;;;;;7.55;3.25;;;20.40;81.90;;;;;;5071793;28;20120;-59
2023/06/12 02:22:11;;;;;;;6.47;3.40;;;20.40;82.10;;;;;;5071271;28;20033;-60
2023/06/12 02:24:39;;;;;;;5.53;3.40;;;20.30;82.30;;;;;;5054248;28;20072;-58
2023/06/12 02:27:05;;;;;;;6.18;3.63;;;20.20;82.40;;;;;;5070631;28;20052;-60
2023/06/12 02:29:31;;;;;;;6.72;3.40;;;20.20;82.70;;;;;;5071614;28;20036;-60
2023/06/12 02:31:56;;;;;;;8.10;3.22;;;20.20;82.90;;;;;;5072077;28;20496;-60
2023/06/12 02:34:22;;;;;;;6.00;3.45;;;20.20;83.00;;;;;;5064579;28;20109;-59
2023/06/12 02:36:48;;;;;;;6.85;3.20;;;20.10;83.10;;;;;;5073113;28;20044;-60
2023/06/12 02:39:14;;;;;;;8.80;3.22;;;20.10;83.20;;;;;;5072707;28;20476;-59
2023/06/12 02:41:46;;;;;;;8.50;3.38;;;20.10;83.40;;;;;;5072393;28;20032;-59
2023/06/12 02:44:12;;;;;;;10.50;3.13;;;20.10;83.40;;;;;;5072253;28;20068;-59
2023/06/12 02:46:55;;;;;;;8.05;3.20;;;20.00;83.40;;;;;;5072779;28;20083;-58
2023/06/12 02:49:22;;;;;;;7.60;3.25;;;20.00;84.10;;;;;;5071530;28;20040;-60
2023/06/12 02:51:48;;;;;;;6.00;3.10;;;19.90;83.90;;;;;;5072503;28;20044;-61
2023/06/12 02:54:15;;;;;;;7.97;3.50;;;19.90;84.20;;;;;;5072347;28;20479;-60
2023/06/12 02:56:46;;;;;;;8.02;3.28;;;19.90;84.20;;;;;;5071154;28;20448;-60
2023/06/12 02:59:18;;;;;;;9.60;3.50;;;19.80;84.40;;;;;;5053262;28;20384;-59
2023/06/12 03:01:44;;;;;;;8.73;3.70;;;19.70;84.70;;;;;;5052138;28;20053;-60
2023/06/12 03:04:12;;;;;;;11.90;3.58;;;19.70;84.90;;;;;;5051783;28;20051;-61
2023/06/12 03:06:39;;;;;;;12.52;3.88;;;19.60;85.10;;;;;;5034325;28;20053;-60
2023/06/12 03:09:08;;;;;;;7.53;3.80;;;19.60;85.90;;;;;;5052036;28;20044;-58
2023/06/12 03:11:37;;;;;;;9.02;4.00;;;19.50;85.40;;;;;;5051967;28;20040;-59
2023/06/12 03:14:07;;;;;;;9.75;3.90;;;19.50;86.10;;;;;;5052292;28;20739;-59
2023/06/12 03:16:33;;;;;;;8.45;3.70;;;19.50;85.90;;;;;;5034407;28;20090;-61
2023/06/12 03:18:59;;;;;;;8.20;3.90;;;19.40;86.00;;;;;;5034189;28;20036;-59
2023/06/12 03:21:25;;;;;;;10.68;3.95;;;19.40;86.10;;;;;;5051647;28;20040;-60
2023/06/12 03:23:51;;;;;;;6.25;3.83;;;19.40;86.20;;;;;;5051996;28;20500;-59
2023/06/12 03:26:17;;;;;;;7.90;3.33;;;19.30;86.20;;;;;;5051983;28;20064;-61
2023/06/12 03:28:44;;;;;;;8.05;3.20;;;19.30;86.30;;;;;;5049580;28;20040;-60
2023/06/12 03:31:10;;;;;;;7.60;3.35;;;19.30;86.60;;;;;;5047784;28;20056;-58
2023/06/12 03:33:36;;;;;;;10.10;3.50;;;19.30;86.80;;;;;;5051275;28;20115;-60
2023/06/12 03:36:01;;;;;;;8.10;3.30;;;19.30;86.80;;;;;;5051549;28;20120;-61
2023/06/12 03:38:27;;;;;;;11.13;3.60;;;19.20;86.90;;;;;;5048186;28;20040;-61
2023/06/12 03:40:53;;;;;;;7.68;3.20;;;19.20;87.10;;;;;;5048930;28;20041;-59
2023/06/12 03:43:18;;;;;;;8.20;3.10;;;19.10;87.40;;;;;;5051968;28;20107;-59
2023/06/12 03:45:44;;;;;;;7.13;3.30;;;19.10;87.50;;;;;;5051998;28;20043;-59
2023/06/12 03:48:10;;;;;;;7.60;2.75;;;19.10;87.70;;;;;;5034063;28;20037;-60
2023/06/12 03:50:36;;;;;;;6.18;3.08;;;19.10;87.90;;;;;;5052168;28;20488;-60
2023/06/12 03:53:02;;;;;;;8.13;3.50;;;19.10;88.10;;;;;;5051932;28;20037;-60
2023/06/12 03:55:28;;;;;;;6.05;3.25;;;19.10;88.20;;;;;;5033731;28;20041;-59
2023/06/12 03:57:54;;;;;;;7.55;3.10;;;19.00;88.30;;;;;;5017391;28;20116;-59
2023/06/12 04:00:20;;;;;;;8.75;3.67;;;19.10;88.60;;;;;;5059912;28;20136;-60
2023/06/12 04:02:47;;;;;;;10.38;3.65;;;19.00;88.70;;;;;;5053535;28;20051;-61
2023/06/12 04:05:12;;;;;;;9.65;4.03;;;19.00;88.90;;;;;;5071820;28;20383;-59
2023/06/12 04:07:39;;;;;;;7.68;3.50;;;18.90;89.10;;;;;;5053486;28;20040;-59
2023/06/12 04:10:07;;;;;;;9.55;3.33;;;18.90;89.90;;;;;;5071470;28;20032;-60
2023/06/12 04:12:32;;;;;;;8.35;3.03;;;18.90;89.40;;;;;;5071607;28;20043;-58
2023/06/12 04:14:58;;;;;;;6.43;3.30;;;18.90;89.60;;;;;;5071347;28;20052;-58
2023/06/12 04:17:24;;;;;;;7.32;3.05;;;19.00;89.90;;;;;;5071455;28;20107;-59
2023/06/12 04:19:49;;;;;;;8.57;3.42;;;19.00;89.90;;;;;;5071400;28;20086;-60
2023/06/12 04:22:16;;;;;;;11.32;3.05;;;19.00;90.00;;;;;;5053522;28;20040;-61
2023/06/12 04:24:45;;;;;;;6.38;3.55;;;19.00;90.00;;;;;;5053479;28;20434;-60
2023/06/12 04:27:11;;;;;;;10.38;3.55;;;19.00;90.40;;;;;;5071097;28;20075;-58
2023/06/12 04:29:38;;;;;;;7.80;3.53;;;19.00;90.20;;;;;;5071191;28;20040;-59
2023/06/12 04:32:07;;;;;;;7.38;3.38;;;19.00;90.10;;;;;;5071097;28;20044;-59
2023/06/12 04:34:45;;;;;;;6.55;3.20;;;19.10;90.20;;;;;;5052713;28;20093;-59
2023/06/12 04:37:13;;;;;;;7.30;3.47;;;19.10;90.20;;;;;;5071226;28;20024;-59
2023/06/12 04:39:40;;;;;;;7.65;3.60;;;19.00;90.30;;;;;;5070968;28;20044;-58
2023/06/12 04:42:10;;;;;;;8.75;3.83;;;19.00;90.30;;;;;;5070800;28;20040;-60
2023/06/12 04:44:39;;;;;;;10.30;3.40;;;19.10;90.40;;;;;;5070921;28;20048;-59
2023/06/12 04:47:08;;;;;;;7.45;3.47;;;19.10;90.40;;;;;;5070872;28;20040;-61
2023/06/12 04:49:35;;;;;;;6.72;3.10;;;19.00;90.50;;;;;;5070780;28;20331;-59
2023/06/12 04:52:03;;;;;;;8.25;3.70;;;19.10;90.50;;;;;;5071122;28;20529;-59
2023/06/12 04:54:35;;;;;;;7.43;3.30;;;19.10;90.60;;;;;;5070910;28;20406;-59
2023/06/12 04:57:03;;;;;;;7.25;3.58;;;19.10;90.60;;;;;;5071105;28;20048;-59
2023/06/12 04:59:30;;;;;;;9.40;3.40;;;19.10;90.60;;;;;;5070784;28;20053;-60
2023/06/12 05:01:57;;;;;;;7.13;3.42;;;19.20;90.60;;;;;;5070552;28;20060;-60
2023/06/12 05:04:23;;;;;;;11.80;3.83;;;19.20;90.70;;;;;;5070210;28;20047;-59
2023/06/12 05:06:49;;;;;;;7.80;3.55;;;19.20;90.70;;;;;;5070519;28;20044;-60
2023/06/12 05:09:15;;;;;;;11.10;3.78;;;19.30;90.70;;;;;;5070783;28;20044;-60
2023/06/12 05:11:40;;;;;;;7.63;3.67;;;19.30;90.80;;;;;;5070505;28;20110;-60
2023/06/12 05:14:06;;;;;;;7.40;4.10;;;19.30;90.70;;;;;;5070815;28;20112;-59
2023/06/12 05:16:32;;;;;;;6.63;3.42;;;19.30;90.70;;;;;;5070601;28;20064;-59
2023/06/12 05:18:57;;;;;;;9.43;3.40;;;19.30;90.90;;;;;;5070870;28;20040;-60
2023/06/12 05:21:23;;;;;;;7.22;3.58;;;19.40;90.90;;;;;;5070658;28;20047;-60
2023/06/12 05:23:50;;;;;;;7.28;3.63;;;19.40;90.90;;;;;;5073448;28;20064;-59
2023/06/12 05:26:16;;;;;;;9.32;3.15;;;19.40;90.90;;;;;;5074721;28;20049;-59
2023/06/12 05:28:41;;;;;;;7.10;3.60;;;19.50;91.00;;;;;;5069487;28;20412;-59
2023/06/12 05:31:07;;;;;;;7.68;3.67;;;19.50;91.10;;;;;;5054749;28;20436;-61
2023/06/12 05:33:33;;;;;;;8.05;3.67;;;19.60;91.20;;;;;;5054382;28;20048;-60
2023/06/12 05:35:59;;;;;;;7.70;3.65;;;19.60;91.20;;;;;;5054579;28;20052;-60
2023/06/12 05:38:25;;;;;;;7.15;3.78;;;19.60;91.30;;;;;;5054313;28;20044;-60
2023/06/12 05:40:51;;;;;;;6.43;3.42;;;19.60;91.30;;;;;;5054585;28;20112;-59
2023/06/12 05:43:17;;;;;;;10.50;3.95;;;19.70;91.30;;;;;;5073242;28;20032;-60
2023/06/12 05:45:42;;;;;;;6.18;3.40;;;19.70;91.30;;;;;;5074433;28;20032;-59
2023/06/12 05:48:08;;;;;;;8.00;3.45;;;19.70;91.30;;;;;;5074201;28;20441;-60
2023/06/12 05:50:35;;;;;;;7.50;4.00;;;19.70;91.30;;;;;;5074292;28;20040;-58
2023/06/12 05:53:01;;;;;;;10.00;3.90;;;19.80;91.30;;;;;;5056132;28;20032;-61
2023/06/12 05:55:27;;;;;;;8.63;3.65;;;19.80;91.40;;;;;;5056249;28;20459;-60
2023/06/12 05:57:53;;;;;;;6.65;3.67;;;19.90;91.40;;;;;;5073865;28;20116;-59
2023/06/12 06:00:21;;;;;;;8.77;3.40;;;19.90;91.40;;;;;;5073728;28;20047;-60
2023/06/12 06:02:47;;;;;;;9.27;3.97;;;19.90;91.50;;;;;;5073043;28;20104;-60
2023/06/12 06:05:13;;;;;;;9.45;3.63;;;20.00;91.60;;;;;;5064577;28;20124;-59
2023/06/12 06:07:38;;;;;;;9.75;3.72;;;20.00;91.50;;;;;;5060147;28;20466;-59
2023/06/12 06:10:05;;;;;;;7.68;3.75;;;20.10;91.50;;;;;;5053684;28;20033;-61
2023/06/12 06:12:31;;;;;;;9.35;3.95;;;20.10;91.50;;;;;;5061897;28;20076;-59
2023/06/12 06:14:56;;;;;;;8.75;3.38;;;20.10;91.30;;;;;;5052128;28;20107;-59
2023/06/12 06:17:23;;;;;;;6.82;3.85;;;20.10;91.30;;;;;;5054036;28;20036;-59
2023/06/12 06:19:49;;;;;;;9.88;3.95;;;20.10;91.40;;;;;;5064270;28;20116;-59
2023/06/12 06:22:17;;;;;;;9.07;3.97;;;20.10;91.30;;;;;;5059001;28;20159;-59
2023/06/12 06:24:43;;;;;;;10.10;4.00;;;20.20;91.40;;;;;;5056065;28;20060;-60
2023/06/12 06:27:09;;;;;;;11.70;3.80;;;20.20;91.30;;;;;;5060899;28;20044;-59
2023/06/12 06:29:35;;;;;;;9.13;3.90;;;20.30;91.30;;;;;;5057003;28;20045;-59
2023/06/12 06:32:01;;;;;;;7.47;3.70;;;20.40;91.30;;;;;;5071529;28;20037;-58
2023/06/12 06:34:27;;;;;;;6.80;3.40;;;20.40;91.50;;;;;;5072824;28;20051;-60
2023/06/12 06:36:53;;;;;;;9.18;3.92;;;20.50;91.80;;;;;;5073422;28;20550;-60
2023/06/12 06:39:19;;;;;;;7.68;3.90;;;20.60;91.50;;;;;;5073388;28;20037;-61
2023/06/12 06:41:44;;;;;;;8.80;3.80;;;20.60;91.40;;;;;;5055103;28;20098;-59
2023/06/12 06:44:10;;;;;;;7.20;3.80;;;20.60;91.40;;;;;;5061290;28;20039;-59
2023/06/12 06:46:36;;;;;;;6.57;3.60;;;20.70;91.30;;;;;;5071088;28;20044;-58
2023/06/12 06:49:02;;;;;;;8.02;3.83;;;20.80;91.30;;;;;;5055174;28;20529;-60
2023/06/12 06:51:30;;;;;;;6.60;3.58;;;20.80;91.30;;;;;;5062686;28;20098;-59
2023/06/12 06:53:57;;;;;;;8.85;3.53;;;21.00;91.30;;;;;;5052937;28;20049;-59
2023/06/12 06:56:23;;;;;;;6.68;3.38;;;21.00;91.30;;;;;;5054323;28;20053;-59
2023/06/12 06:58:49;;;;;;;6.97;3.20;;;21.10;91.10;;;;;;5053914;28;20040;-60
2023/06/12 07:01:15;;;;;;;8.00;3.45;;;21.20;91.10;;;;;;5072527;28;20049;-60
2023/06/12 07:03:41;;;;;;;5.95;3.38;;;21.30;91.10;;;;;;5072577;28;20047;-60
2023/06/12 07:06:07;;;;;;;8.40;3.35;;;21.40;91.10;;;;;;5072981;28;20056;-60
2023/06/12 07:08:33;;;;;;;8.80;4.00;;;21.50;91.10;;;;;;5072639;28;20163;-59
2023/06/12 07:10:59;;;;;;;11.30;3.55;;;21.60;90.90;;;;;;5072876;28;20119;-60
2023/06/12 07:13:24;;;;;;;8.40;3.20;;;21.60;90.70;;;;;;5072927;28;20479;-59
2023/06/12 07:15:51;;;;;;;8.63;3.45;;;21.70;90.80;;;;;;5072777;28;20052;-59
2023/06/12 07:18:17;;;;;;;7.38;3.88;;;21.80;90.70;;;;;;5072164;28;20079;-59
2023/06/12 07:20:43;;;;;;;6.53;3.30;;;21.90;90.70;;;;;;5053787;28;20464;-60
2023/06/12 07:23:09;;;;;;;7.22;3.60;;;21.90;90.70;;;;;;5072874;28;20140;-59
2023/06/12 07:25:34;;;;;;;9.32;3.95;;;22.00;90.50;;;;;;5072248;28;20043;-61
2023/06/12 07:28:00;;;;;;;9.25;3.95;;;22.10;90.40;;;;;;5072385;28;20032;-60
2023/06/12 07:30:26;;;;;;;7.53;3.67;;;22.20;90.30;;;;;;5056417;28;20445;-59
2023/06/12 07:32:52;;;;;;;10.50;3.90;;;22.30;90.60;;;;;;5054675;28;20551;-58
2023/06/12 07:35:18;;;;;;;7.13;3.92;;;22.40;90.50;;;;;;5038213;28;20364;-61
2023/06/12 07:37:45;;;;;;;6.32;3.22;;;22.40;90.30;;;;;;5058105;28;20048;-59
2023/06/12 07:40:12;;;;;;;14.43;4.05;;;22.50;90.10;;;;;;5056689;28;20719;-60
2023/06/12 07:42:38;;;;;;;8.82;3.80;;;22.60;90.00;;;;;;5038012;28;20048;-58
2023/06/12 07:45:04;;;;;;;9.63;4.00;;;22.60;89.80;;;;;;5056104;28;20040;-60
2023/06/12 07:47:30;;;;;;;8.50;3.88;;;22.70;89.10;;;;;;5037889;28;20044;-60
2023/06/12 07:49:56;;;;;;;9.20;3.95;;;22.80;89.60;;;;;;5056773;28;20071;-58
2023/06/12 07:52:22;;;;;;;8.13;3.85;;;22.80;89.50;;;;;;5055798;28;20048;-59
2023/06/12 07:54:49;;;;;;;7.95;4.07;;;22.90;89.30;;;;;;5055831;28;20043;-58
2023/06/12 07:57:14;;;;;;;6.15;3.90;;;22.90;89.20;;;;;;5055167;28;20472;-59
2023/06/12 07:59:40;;;;;;;10.70;3.80;;;23.00;89.40;;;;;;5051135;28;20051;-60
2023/06/12 08:02:06;;;;;;;11.48;4.25;;;23.00;89.70;;;;;;5054967;28;20052;-59
2023/06/12 08:04:33;;;;;;;8.70;3.72;;;23.10;89.20;;;;;;5055217;28;20032;-60
2023/06/12 08:07:00;;;;;;;8.55;3.75;;;23.20;89.20;;;;;;5053660;28;20086;-60
2023/06/12 08:09:26;;;;;;;7.25;3.58;;;23.20;88.60;;;;;;5050214;28;20040;-59
2023/06/12 08:11:52;;;;;;;10.15;4.20;;;23.30;88.30;;;;;;5055142;28;20072;-59
2023/06/12 08:14:18;;;;;;;5.55;3.42;;;23.40;87.50;;;;;;5033472;28;20064;-60
2023/06/12 08:16:45;;;;;;;14.23;4.40;;;23.40;87.90;;;;;;5055789;28;20036;-59
2023/06/12 08:19:12;;;;;;;10.13;4.13;;;23.50;86.90;;;;;;5056643;28;20476;-59
2023/06/12 08:21:39;;;;;;;9.60;4.07;;;23.50;87.50;;;;;;5054344;28;20098;-59
2023/06/12 08:24:10;;;;;;;6.30;3.53;;;23.60;87.00;;;;;;5055862;28;20044;-61
2023/06/12 08:26:36;;;;;;;6.57;4.35;;;23.70;86.90;;;;;;5054403;28;20036;-60
2023/06/12 08:29:02;;;;;;;7.38;3.88;;;23.80;86.60;;;;;;5054673;28;20036;-59
2023/06/12 08:31:27;;;;;;;9.23;4.10;;;23.90;86.40;;;;;;5055158;28;20036;-60
2023/06/12 08:33:53;;;;;;;9.73;4.28;;;24.00;86.30;;;;;;5053605;28;20098;-53
2023/06/12 08:36:19;;;;;;;8.93;4.40;;;24.10;86.50;;;;;;5033702;28;20056;-61
2023/06/12 08:38:45;;;;;;;8.15;4.40;;;24.20;86.10;;;;;;5054881;28;20182;-59
2023/06/12 08:41:10;;;;;;;7.15;4.18;;;24.30;85.60;;;;;;5054070;28;20040;-60
2023/06/12 08:43:37;;;;;;;9.68;4.30;;;24.40;84.70;;;;;;5054719;28;20028;-60
2023/06/12 08:46:07;;;;;;;10.30;4.63;;;24.50;85.20;;;;;;5054199;28;20110;-60
2023/06/12 08:48:33;;;;;;;9.25;4.20;;;24.60;84.20;;;;;;5053707;28;20033;-60
2023/06/12 08:51:02;;;;;;;7.35;4.05;;;24.70;83.80;;;;;;5054650;28;20068;-60
2023/06/12 08:53:28;;;;;;;9.98;4.20;;;24.70;83.60;;;;;;5055134;28;20048;-60
2023/06/12 08:55:55;;;;;;;8.77;4.72;;;24.80;83.50;;;;;;5053890;28;20036;-60
2023/06/12 08:58:21;;;;;;;9.50;4.07;;;24.90;83.00;;;;;;5053867;28;20056;-59
2023/06/12 09:00:47;;;;;;;12.02;4.35;;;25.00;82.60;;;;;;5053837;28;20075;-61
2023/06/12 09:03:14;;;;;;;8.15;4.35;;;25.10;82.80;;;;;;5055081;28;20032;-60
2023/06/12 09:05:40;;;;;;;8.75;4.10;;;25.20;82.40;;;;;;5055332;28;20033;-62
2023/06/12 09:08:06;;;;;;;7.90;4.10;;;25.30;82.60;;;;;;5054415;28;20060;-61
2023/06/12 09:10:34;;;;;;;7.97;4.50;;;25.50;82.50;;;;;;5054786;28;20036;-60
2023/06/12 09:13:04;;;;;;;8.27;3.95;;;25.60;81.70;;;;;;5053944;28;20045;-60
2023/06/12 09:15:30;;;;;;;8.07;4.10;;;25.80;81.80;;;;;;5054875;28;20115;-59
2023/06/12 09:17:55;;;;;;;7.28;4.30;;;26.00;82.40;;;;;;5054227;28;20446;-60
2023/06/12 09:20:33;;;;;;;9.80;4.35;;;26.20;82.90;;;;;;5054447;28;20060;-60
2023/06/12 09:23:04;;;;;;;7.28;4.53;;;26.50;81.50;;;;;;5055072;28;20104;-58
2023/06/12 09:25:34;;;;;;;8.65;4.38;;;26.70;81.00;;;;;;5051132;28;20091;-60
2023/06/12 09:28:03;;;;;;;7.10;4.15;;;26.80;80.10;;;;;;5053207;28;20036;-60
2023/06/12 09:30:33;;;;;;;7.93;4.32;;;26.90;80.00;;;;;;5052333;28;20041;-60
2023/06/12 09:33:03;;;;;;;6.55;4.15;;;27.00;80.10;;;;;;5050813;28;20044;-60
2023/06/12 09:35:29;;;;;;;8.98;4.88;;;27.10;79.90;;;;;;5054449;28;20052;-58
2023/06/12 09:37:56;;;;;;;7.55;4.35;;;27.30;79.70;;;;;;5052787;28;20036;-61
2023/06/12 09:40:22;;;;;;;6.57;4.45;;;27.40;80.00;;;;;;5052833;28;20064;-60
2023/06/12 09:42:49;;;;;;;8.85;4.60;;;27.50;79.50;;;;;;5055638;28;20033;-61
2023/06/12 09:45:20;;;;;;;10.27;4.40;;;27.50;78.90;;;;;;5055642;28;20097;-59
2023/06/12 09:47:51;;;;;;;8.10;4.88;;;27.60;79.10;;;;;;5034920;28;20032;-59
2023/06/12 09:50:22;;;;;;;6.85;4.88;;;27.80;77.30;;;;;;5055339;28;20110;-58
2023/06/12 09:52:48;;;;;;;8.30;4.97;;;27.80;75.70;;;;;;5035868;28;20035;-60
2023/06/12 09:55:18;;;;;;;12.55;5.20;;;27.90;76.30;;;;;;5053346;28;20045;-59
2023/06/12 09:57:52;;;;;;;8.18;5.28;;;28.00;76.70;;;;;;5055590;28;20691;-61
2023/06/12 10:00:19;;;;;;;7.95;4.90;;;28.00;75.80;;;;;;5053010;28;21229;-61
2023/06/12 10:02:56;;;;;;;8.23;4.75;;;28.00;75.00;;;;;;5036856;28;20037;-59
2023/06/12 10:05:35;;;;;;;10.23;5.03;;;28.10;75.10;;;;;;5054168;28;20040;-60
2023/06/12 10:08:03;;;;;;;7.05;4.97;;;28.20;75.10;;;;;;5034866;28;20055;-60
2023/06/12 10:10:30;;;;;;;6.93;4.55;;;28.30;74.40;;;;;;5036904;28;20139;-59
2023/06/12 10:12:57;;;;;;;7.70;5.25;;;28.40;74.30;;;;;;5056511;28;20188;-61
2023/06/12 10:15:23;;;;;;;7.38;5.05;;;28.40;73.50;;;;;;5055691;28;20048;-59
2023/06/12 10:17:52;;;;;;;7.03;4.68;;;28.40;73.30;;;;;;5057578;28;20063;-60
2023/06/12 10:20:19;;;;;;;8.35;5.38;;;28.50;73.00;;;;;;5058139;28;20491;-61
2023/06/12 10:22:46;;;;;;;8.88;5.63;;;28.50;72.40;;;;;;5055409;28;20048;-60
2023/06/12 10:25:13;;;;;;;13.35;6.22;;;28.60;71.30;;;;;;5057628;28;20103;-59
2023/06/12 10:27:40;;;;;;;8.95;5.22;;;28.70;71.20;;;;;;5056122;28;20037;-60
2023/06/12 10:30:11;;;;;;;7.55;5.05;;;28.60;70.80;;;;;;5059102;28;20033;-58
2023/06/12 10:32:37;;;;;;;9.85;4.82;;;28.60;70.50;;;;;;5056063;28;20036;-60
2023/06/12 10:35:04;;;;;;;9.95;5.05;;;28.60;70.50;;;;;;5057942;28;20154;-60
2023/06/12 10:37:31;;;;;;;6.70;4.78;;;28.70;70.80;;;;;;5058882;28;20102;-62
2023/06/12 10:40:15;;;;;;;8.07;5.13;;;28.80;70.40;;;;;;5037453;28;20045;-60
2023/06/12 10:42:41;;;;;;;10.40;4.68;;;28.90;70.50;;;;;;5055159;28;20113;-60
2023/06/12 10:45:23;;;;;;;6.97;4.72;;;29.00;69.80;;;;;;5024036;28;20040;-60
2023/06/12 10:48:04;;;;;;;9.90;4.97;;;29.10;70.00;;;;;;5039722;28;20044;-60
2023/06/12 10:50:38;;;;;;;6.70;4.03;;;29.00;68.50;;;;;;5058313;28;20046;-60
2023/06/12 10:53:11;;;;;;;7.63;4.10;;;29.10;68.10;;;;;;5056869;28;20036;-58
2023/06/12 10:55:37;;;;;;;;;;;29.20;66.70;;;;;;5058932;28;20455;-59
2023/06/12 10:58:11;;;;;;;6.03;4.22;;;29.30;68.00;;;;;;5058701;28;19924;-58
2023/06/12 11:00:46;;;;;;;8.45;3.97;;;29.40;69.10;;;;;;5056934;28;20048;-58
2023/06/12 11:03:25;;;;;;;5.72;3.90;;;29.60;66.10;;;;;;5036915;28;20032;-58
2023/06/12 11:06:15;;;;;;;6.75;4.25;;;29.70;65.20;;;;;;5056644;28;20055;-59
2023/06/12 11:08:42;;;;;;;7.88;4.55;;;29.80;65.30;;;;;;5055905;28;20044;-59
2023/06/12 11:11:09;;;;;;;6.93;4.55;;;29.90;65.90;;;;;;5056362;28;20035;-59
2023/06/12 11:13:38;;;;;;;8.70;4.63;;;30.10;65.70;;;;;;5056403;28;20048;-60
2023/06/12 11:16:04;;;;;;;6.72;4.55;;;30.00;66.40;;;;;;5058071;28;20040;-59
2023/06/12 11:18:29;;;;;;;6.97;4.97;;;30.10;66.70;;;;;;5056863;28;20029;-59
2023/06/12 11:20:56;;;;;;;7.75;4.78;;;30.20;66.60;;;;;;5054913;28;20112;-60
2023/06/12 11:23:28;;;;;;;6.85;5.05;;;30.20;66.70;;;;;;5056032;28;20078;-60
2023/06/12 11:25:55;;;;;;;7.10;5.18;;;30.20;66.00;;;;;;5055292;28;20024;-59
2023/06/12 11:28:25;;;;;;;6.57;4.82;;;30.20;65.00;;;;;;5054352;28;20039;-59
2023/06/12 11:30:53;;;;;;;7.20;4.35;;;30.40;65.20;;;;;;5056482;28;20049;-58
2023/06/12 11:33:20;;;;;;;7.38;4.68;;;30.50;65.00;;;;;;5055873;28;20071;-61
2023/06/12 11:35:51;;;;;;;6.70;4.38;;;30.60;65.00;;;;;;5039345;28;20602;-59
2023/06/12 11:38:21;;;;;;;8.45;4.68;;;30.70;65.00;;;;;;5058573;28;20032;-59
2023/06/12 11:40:49;;;;;;;6.45;4.60;;;30.80;65.50;;;;;;5057679;28;20040;-58
2023/06/12 11:43:19;;;;;;;8.63;5.18;;;30.90;63.40;;;;;;5057667;28;20040;-60
2023/06/12 11:45:45;;;;;;;7.35;5.18;;;30.90;64.30;;;;;;5037248;28;20041;-58
2023/06/12 11:48:16;;;;;;;7.28;5.20;;;30.90;64.30;;;;;;5038190;28;20044;-60
2023/06/12 11:50:50;;;;;;;8.55;4.63;;;31.00;64.30;;;;;;5033981;28;20056;-59
2023/06/12 11:53:16;;;;;;;6.25;4.80;;;31.20;64.00;;;;;;5057356;28;20095;-59
2023/06/12 11:55:46;;;;;;;7.63;5.15;;;31.30;63.30;;;;;;5056908;28;20064;-60
2023/06/12 11:58:12;;;;;;;9.32;5.00;;;31.40;64.00;;;;;;5057094;28;20036;-60
2023/06/12 12:00:40;;;;;;;7.47;5.10;;;31.40;63.50;;;;;;5055197;28;20049;-60
2023/06/12 12:03:08;;;;;;;9.60;5.00;;;31.50;62.80;;;;;;5036575;28;20067;-58
2023/06/12 12:05:36;;;;;;;8.02;4.78;;;31.60;62.30;;;;;;5055955;28;20036;-59
2023/06/12 12:08:03;;;;;;;10.15;4.85;;;31.70;61.40;;;;;;5057482;28;20098;-58
2023/06/12 12:10:31;;;;;;;9.55;4.90;;;31.90;60.20;;;;;;5056339;28;20091;-59
2023/06/12 12:13:00;;;;;;;8.63;5.07;;;32.00;59.80;;;;;;5056106;28;20043;-58
2023/06/12 12:15:28;;;;;;;6.57;5.20;;;32.10;59.10;;;;;;5056134;28;20031;-58
2023/06/12 12:17:54;;;;;;;7.25;5.22;;;32.10;58.10;;;;;;5056608;28;20524;-58
2023/06/12 12:20:23;;;;;;;6.40;4.95;;;32.10;57.80;;;;;;5055388;28;20472;-58
2023/06/12 12:22:57;;;;;;;6.28;4.95;;;32.20;58.50;;;;;;5056242;28;20032;-60
2023/06/12 12:25:26;;;;;;;7.32;5.28;;;32.30;58.50;;;;;;5056029;28;20472;-59
2023/06/12 12:27:53;;;;;;;7.18;5.22;;;32.40;58.20;;;;;;5055037;28;20411;-60
2023/06/12 12:30:23;;;;;;;7.07;4.90;;;32.50;58.60;;;;;;5054642;28;20082;-58
2023/06/12 12:32:51;;;;;;;7.22;4.80;;;32.60;58.00;;;;;;5054604;28;20119;-60
2023/06/12 12:35:17;;;;;;;9.45;5.20;;;32.60;57.60;;;;;;5055109;28;20036;-59
2023/06/12 12:37:44;;;;;;;7.82;4.80;;;32.60;57.30;;;;;;5035031;28;20548;-60
2023/06/12 12:40:11;;;;;;;10.23;4.38;;;32.80;57.50;;;;;;5037356;28;20127;-59
2023/06/12 12:42:38;;;;;;;6.68;4.32;;;32.90;58.10;;;;;;5055651;28;20040;-59
2023/06/12 12:45:05;;;;;;;6.82;4.28;;;33.00;58.00;;;;;;5055869;28;20055;-60
2023/06/12 12:47:32;;;;;;;5.15;3.90;;;33.20;59.40;;;;;;5057324;28;20052;-59